Fischbek Airfield

DE-0271 · Hamburg, 德国

罗盘
风向 的 风向 250°
风: 12 kt, 4 beaufort

添加一条跑道以查看侧风和逆风信息。

添置 跑道
0 1.000 2.000 3.000 4.000 5.000
SCT 2.300 ft
BKN 2.800 ft
METAR EDDH 060320Z AUTO 25012KT 9999 SCT023 BKN028 14/10 Q1018 NOSIG

METAR Fischbek Airfield - DE-0271

Fischbek Airfield是Fischbek,德国中的小机场。 视场标高为217 ft。 该领域的国际民航组织标志是DE-0271.

这份报告是针对2022年10月6日 05:20, 当地时间在Hamburg Airport进行的。

机场观察

风向为250°,速度为12 kt。

可见度为10 km 或者更多。

有疏云,零星散落的云朵在2.300 ft的高度 和 碎云在2.800 ft的高度。 破损或更高的上限为2.800 ft。

温度和风寒是14 °C。 露点为10 °C,相对湿度为77%。 海平面上的气压为1018 hPa (QNH)。

白天

今天,太阳从07:31升起,在18:46降落。 这适用于Fischbek Airfield,世界夏令时可能有所不同。 当地时间与世界标准时间之间的时差为+2 小时。 夏令时目前正在进行中。

公司介绍

我们没有关于这个机场的公司信息。

体会

到Vliegles.nl去找飞行课程,跳伞和其他飞行体验。 浏览页面,了解Fischbek Airfield附近所有可用的活动。 你也可以使用搜索功能来寻找你所在地附近的特定飞行课程、跳伞或其他飞行体验。

乌云

2.300 ft SCT 疏云,零星散落的云朵
2.800 ft BKN 碎云

温度 & 天气

温度 14 °C
露点 10 °C
相对湿度 77%
Kp-index 1 (0-9)

白天

日出
07:30 (1h 44m)
中午
13:08
日落
18:45

小工具

你想在你的网站上有一个关于Fischbek Airfield的当前航空天气(METAR)的小部件吗?

</> 显示HTML代码

我们和第三方通过cookies跟踪您在我们网站上的上网行为。如果您继续,我们认为您同意我们的cookie政策。 了解更多